sensor_id;sensor_type;location;lat;lon;timestamp;P1;durP1;ratioP1;P2;durP2;ratioP2
74510;SDS011;62991;50.040;18.400;2022-11-11T00:01:45;35.15;;;13.48;;
74510;SDS011;62991;50.040;18.400;2022-11-11T00:04:46;30.48;;;12.40;;
74510;SDS011;62991;50.040;18.400;2022-11-11T00:07:47;30.38;;;13.43;;
74510;SDS011;62991;50.040;18.400;2022-11-11T00:10:48;28.48;;;11.35;;
74510;SDS011;62991;50.040;18.400;2022-11-11T00:13:48;31.30;;;12.85;;
74510;SDS011;62991;50.040;18.400;2022-11-11T00:16:49;36.17;;;12.20;;
74510;SDS011;62991;50.040;18.400;2022-11-11T00:20:11;26.20;;;11.05;;
74510;SDS011;62991;50.040;18.400;2022-11-11T00:26:49;21.73;;;9.68;;
74510;SDS011;62991;50.040;18.400;2022-11-11T00:29:50;25.52;;;9.98;;
74510;SDS011;62991;50.040;18.400;2022-11-11T00:32:51;23.02;;;9.63;;
74510;SDS011;62991;50.040;18.400;2022-11-11T00:35:52;21.40;;;9.25;;
74510;SDS011;62991;50.040;18.400;2022-11-11T00:38:53;22.05;;;9.13;;
74510;SDS011;62991;50.040;18.400;2022-11-11T00:41:54;20.33;;;9.60;;
74510;SDS011;62991;50.040;18.400;2022-11-11T00:44:55;23.85;;;9.02;;
74510;SDS011;62991;50.040;18.400;2022-11-11T00:47:56;24.75;;;11.02;;
74510;SDS011;62991;50.040;18.400;2022-11-11T00:51:15;27.40;;;10.50;;
74510;SDS011;62991;50.040;18.400;2022-11-11T00:54:15;23.38;;;9.68;;
74510;SDS011;62991;50.040;18.400;2022-11-11T00:57:16;24.13;;;10.38;;
74510;SDS011;62991;50.040;18.400;2022-11-11T01:00:17;24.17;;;11.23;;
74510;SDS011;62991;50.040;18.400;2022-11-11T01:03:18;22.92;;;11.27;;
74510;SDS011;62991;50.040;18.400;2022-11-11T01:06:19;22.80;;;10.20;;
74510;SDS011;62991;50.040;18.400;2022-11-11T01:09:20;18.10;;;8.90;;
74510;SDS011;62991;50.040;18.400;2022-11-11T01:12:21;21.35;;;9.45;;
74510;SDS011;62991;50.040;18.400;2022-11-11T01:15:22;25.60;;;10.10;;
74510;SDS011;62991;50.040;18.400;2022-11-11T01:18:23;24.08;;;9.02;;
74510;SDS011;62991;50.040;18.400;2022-11-11T01:21:25;30.60;;;11.60;;
74510;SDS011;62991;50.040;18.400;2022-11-11T01:24:26;22.83;;;9.48;;
74510;SDS011;62991;50.040;18.400;2022-11-11T01:27:26;23.92;;;9.43;;
74510;SDS011;62991;50.040;18.400;2022-11-11T01:30:27;25.50;;;11.95;;
74510;SDS011;62991;50.040;18.400;2022-11-11T01:33:28;24.85;;;10.65;;
74510;SDS011;62991;50.040;18.400;2022-11-11T01:36:29;23.67;;;10.02;;
74510;SDS011;62991;50.040;18.400;2022-11-11T01:39:30;26.88;;;10.45;;
74510;SDS011;62991;50.040;18.400;2022-11-11T01:42:30;28.55;;;11.95;;
74510;SDS011;62991;50.040;18.400;2022-11-11T01:48:47;26.83;;;10.68;;
74510;SDS011;62991;50.040;18.400;2022-11-11T01:55:42;30.30;;;10.32;;
74510;SDS011;62991;50.040;18.400;2022-11-11T01:58:42;30.33;;;11.35;;
74510;SDS011;62991;50.040;18.400;2022-11-11T02:01:43;23.58;;;10.20;;
74510;SDS011;62991;50.040;18.400;2022-11-11T02:04:44;28.05;;;11.05;;
74510;SDS011;62991;50.040;18.400;2022-11-11T02:08:06;19.73;;;7.93;;
74510;SDS011;62991;50.040;18.400;2022-11-11T02:11:31;15.82;;;8.68;;
74510;SDS011;62991;50.040;18.400;2022-11-11T02:14:53;22.83;;;9.70;;
74510;SDS011;62991;50.040;18.400;2022-11-11T02:17:57;17.88;;;9.48;;
74510;SDS011;62991;50.040;18.400;2022-11-11T02:20:58;21.48;;;9.45;;
74510;SDS011;62991;50.040;18.400;2022-11-11T02:24:08;24.10;;;9.18;;
74510;SDS011;62991;50.040;18.400;2022-11-11T02:27:15;22.52;;;10.43;;
74510;SDS011;62991;50.040;18.400;2022-11-11T02:30:19;21.33;;;10.18;;
74510;SDS011;62991;50.040;18.400;2022-11-11T02:33:20;28.70;;;10.02;;
74510;SDS011;62991;50.040;18.400;2022-11-11T02:36:21;23.05;;;9.68;;
74510;SDS011;62991;50.040;18.400;2022-11-11T02:39:22;21.63;;;10.32;;
74510;SDS011;62991;50.040;18.400;2022-11-11T02:42:24;23.50;;;10.05;;
74510;SDS011;62991;50.040;18.400;2022-11-11T02:45:25;25.33;;;10.10;;
74510;SDS011;62991;50.040;18.400;2022-11-11T02:48:26;26.67;;;8.48;;
74510;SDS011;62991;50.040;18.400;2022-11-11T02:51:27;24.88;;;8.95;;
74510;SDS011;62991;50.040;18.400;2022-11-11T02:54:28;28.45;;;9.43;;
74510;SDS011;62991;50.040;18.400;2022-11-11T02:57:29;23.20;;;8.95;;
74510;SDS011;62991;50.040;18.400;2022-11-11T03:00:30;23.00;;;9.32;;
74510;SDS011;62991;50.040;18.400;2022-11-11T03:03:30;24.73;;;9.18;;
74510;SDS011;62991;50.040;18.400;2022-11-11T03:06:31;27.10;;;10.45;;
74510;SDS011;62991;50.040;18.400;2022-11-11T03:09:32;21.95;;;7.30;;
74510;SDS011;62991;50.040;18.400;2022-11-11T03:12:32;21.88;;;8.40;;
74510;SDS011;62991;50.040;18.400;2022-11-11T03:15:33;24.27;;;9.65;;
74510;SDS011;62991;50.040;18.400;2022-11-11T03:18:34;21.08;;;8.77;;
74510;SDS011;62991;50.040;18.400;2022-11-11T03:21:34;28.27;;;9.38;;
74510;SDS011;62991;50.040;18.400;2022-11-11T03:24:35;25.17;;;9.65;;
74510;SDS011;62991;50.040;18.400;2022-11-11T03:27:54;24.23;;;9.40;;
74510;SDS011;62991;50.040;18.400;2022-11-11T03:30:55;20.08;;;8.68;;
74510;SDS011;62991;50.040;18.400;2022-11-11T03:33:57;22.92;;;9.13;;
74510;SDS011;62991;50.040;18.400;2022-11-11T03:37:17;18.05;;;8.20;;
74510;SDS011;62991;50.040;18.400;2022-11-11T03:40:36;18.58;;;7.72;;
74510;SDS011;62991;50.040;18.400;2022-11-11T03:43:36;17.95;;;7.88;;
74510;SDS011;62991;50.040;18.400;2022-11-11T03:46:37;18.23;;;8.30;;
74510;SDS011;62991;50.040;18.400;2022-11-11T03:49:38;18.52;;;7.72;;
74510;SDS011;62991;50.040;18.400;2022-11-11T03:52:41;15.00;;;7.60;;
74510;SDS011;62991;50.040;18.400;2022-11-11T03:55:42;20.60;;;7.93;;
74510;SDS011;62991;50.040;18.400;2022-11-11T03:58:43;21.67;;;8.32;;
74510;SDS011;62991;50.040;18.400;2022-11-11T04:01:43;20.35;;;7.60;;
74510;SDS011;62991;50.040;18.400;2022-11-11T04:05:02;17.80;;;7.05;;
74510;SDS011;62991;50.040;18.400;2022-11-11T04:08:22;11.05;;;5.47;;
74510;SDS011;62991;50.040;18.400;2022-11-11T04:11:42;20.23;;;8.25;;
74510;SDS011;62991;50.040;18.400;2022-11-11T04:14:45;20.10;;;8.63;;
74510;SDS011;62991;50.040;18.400;2022-11-11T04:18:04;16.73;;;7.50;;
74510;SDS011;62991;50.040;18.400;2022-11-11T04:21:05;16.80;;;7.07;;
74510;SDS011;62991;50.040;18.400;2022-11-11T04:24:25;16.50;;;7.47;;
74510;SDS011;62991;50.040;18.400;2022-11-11T04:27:44;15.88;;;6.85;;
74510;SDS011;62991;50.040;18.400;2022-11-11T04:30:45;21.58;;;8.50;;
74510;SDS011;62991;50.040;18.400;2022-11-11T04:33:45;30.33;;;10.50;;
74510;SDS011;62991;50.040;18.400;2022-11-11T04:36:46;26.38;;;9.95;;
74510;SDS011;62991;50.040;18.400;2022-11-11T04:39:47;18.48;;;8.52;;
74510;SDS011;62991;50.040;18.400;2022-11-11T04:43:06;17.08;;;7.55;;
74510;SDS011;62991;50.040;18.400;2022-11-11T04:46:07;18.27;;;9.27;;
74510;SDS011;62991;50.040;18.400;2022-11-11T04:49:08;20.42;;;8.80;;
74510;SDS011;62991;50.040;18.400;2022-11-11T04:52:09;17.95;;;9.02;;
74510;SDS011;62991;50.040;18.400;2022-11-11T04:55:28;19.05;;;7.97;;
74510;SDS011;62991;50.040;18.400;2022-11-11T04:58:47;15.65;;;6.50;;
74510;SDS011;62991;50.040;18.400;2022-11-11T05:02:08;18.55;;;7.82;;
74510;SDS011;62991;50.040;18.400;2022-11-11T05:05:27;22.33;;;8.88;;
74510;SDS011;62991;50.040;18.400;2022-11-11T05:08:49;16.20;;;8.00;;
74510;SDS011;62991;50.040;18.400;2022-11-11T05:11:55;27.92;;;9.50;;
74510;SDS011;62991;50.040;18.400;2022-11-11T05:14:56;25.95;;;9.32;;
74510;SDS011;62991;50.040;18.400;2022-11-11T05:18:15;20.88;;;8.93;;
74510;SDS011;62991;50.040;18.400;2022-11-11T05:21:51;23.48;;;10.20;;
74510;SDS011;62991;50.040;18.400;2022-11-11T05:24:53;30.65;;;10.60;;
74510;SDS011;62991;50.040;18.400;2022-11-11T05:28:13;31.10;;;10.45;;
74510;SDS011;62991;50.040;18.400;2022-11-11T05:31:14;26.00;;;9.85;;
74510;SDS011;62991;50.040;18.400;2022-11-11T05:34:14;28.23;;;11.68;;
74510;SDS011;62991;50.040;18.400;2022-11-11T05:37:15;25.52;;;10.18;;
74510;SDS011;62991;50.040;18.400;2022-11-11T05:40:16;23.65;;;9.85;;
74510;SDS011;62991;50.040;18.400;2022-11-11T05:43:17;33.72;;;12.30;;
74510;SDS011;62991;50.040;18.400;2022-11-11T05:46:17;30.73;;;10.80;;
74510;SDS011;62991;50.040;18.400;2022-11-11T05:49:18;34.63;;;12.52;;
74510;SDS011;62991;50.040;18.400;2022-11-11T05:52:19;29.48;;;11.77;;
74510;SDS011;62991;50.040;18.400;2022-11-11T05:55:20;22.55;;;9.55;;
74510;SDS011;62991;50.040;18.400;2022-11-11T05:58:20;26.90;;;10.23;;
74510;SDS011;62991;50.040;18.400;2022-11-11T06:01:21;25.45;;;9.40;;
74510;SDS011;62991;50.040;18.400;2022-11-11T06:04:22;27.52;;;11.18;;
74510;SDS011;62991;50.040;18.400;2022-11-11T06:07:23;37.20;;;12.00;;
74510;SDS011;62991;50.040;18.400;2022-11-11T06:10:24;23.13;;;9.82;;
74510;SDS011;62991;50.040;18.400;2022-11-11T06:13:30;24.45;;;10.57;;
74510;SDS011;62991;50.040;18.400;2022-11-11T06:16:31;37.03;;;14.75;;
74510;SDS011;62991;50.040;18.400;2022-11-11T06:19:32;21.65;;;8.07;;
74510;SDS011;62991;50.040;18.400;2022-11-11T06:22:33;39.47;;;12.35;;
74510;SDS011;62991;50.040;18.400;2022-11-11T06:25:52;27.92;;;9.75;;
74510;SDS011;62991;50.040;18.400;2022-11-11T06:29:11;27.52;;;11.93;;
74510;SDS011;62991;50.040;18.400;2022-11-11T06:32:12;21.85;;;8.65;;
74510;SDS011;62991;50.040;18.400;2022-11-11T06:35:13;31.38;;;10.70;;
74510;SDS011;62991;50.040;18.400;2022-11-11T06:38:15;32.90;;;9.88;;
74510;SDS011;62991;50.040;18.400;2022-11-11T06:41:16;31.92;;;9.30;;
74510;SDS011;62991;50.040;18.400;2022-11-11T06:44:18;31.85;;;9.15;;
74510;SDS011;62991;50.040;18.400;2022-11-11T06:47:19;29.95;;;8.30;;
74510;SDS011;62991;50.040;18.400;2022-11-11T06:50:24;23.42;;;9.70;;
74510;SDS011;62991;50.040;18.400;2022-11-11T06:53:24;32.20;;;9.98;;
74510;SDS011;62991;50.040;18.400;2022-11-11T06:56:25;24.58;;;8.88;;
74510;SDS011;62991;50.040;18.400;2022-11-11T06:59:26;25.83;;;7.90;;
74510;SDS011;62991;50.040;18.400;2022-11-11T07:02:26;23.40;;;9.68;;
74510;SDS011;62991;50.040;18.400;2022-11-11T07:05:27;30.40;;;10.77;;
74510;SDS011;62991;50.040;18.400;2022-11-11T07:08:28;30.63;;;10.23;;
74510;SDS011;62991;50.040;18.400;2022-11-11T07:11:29;33.15;;;11.30;;
74510;SDS011;62991;50.040;18.400;2022-11-11T07:14:29;25.48;;;9.18;;
74510;SDS011;62991;50.040;18.400;2022-11-11T07:17:30;24.70;;;8.77;;
74510;SDS011;62991;50.040;18.400;2022-11-11T07:20:31;34.75;;;12.18;;
74510;SDS011;62991;50.040;18.400;2022-11-11T07:23:32;31.27;;;9.38;;
74510;SDS011;62991;50.040;18.400;2022-11-11T07:26:32;44.83;;;12.10;;
74510;SDS011;62991;50.040;18.400;2022-11-11T07:29:33;32.78;;;10.77;;
74510;SDS011;62991;50.040;18.400;2022-11-11T07:32:34;23.92;;;10.73;;
74510;SDS011;62991;50.040;18.400;2022-11-11T07:35:35;38.42;;;13.55;;
74510;SDS011;62991;50.040;18.400;2022-11-11T07:38:35;30.75;;;12.93;;
74510;SDS011;62991;50.040;18.400;2022-11-11T07:41:36;25.42;;;9.55;;
74510;SDS011;62991;50.040;18.400;2022-11-11T07:44:37;36.42;;;12.50;;
74510;SDS011;62991;50.040;18.400;2022-11-11T07:47:37;42.15;;;15.38;;
74510;SDS011;62991;50.040;18.400;2022-11-11T07:50:38;39.67;;;16.35;;
74510;SDS011;62991;50.040;18.400;2022-11-11T07:53:39;31.20;;;12.50;;
74510;SDS011;62991;50.040;18.400;2022-11-11T07:56:39;33.83;;;14.50;;
74510;SDS011;62991;50.040;18.400;2022-11-11T07:59:40;30.67;;;9.25;;
74510;SDS011;62991;50.040;18.400;2022-11-11T08:02:45;32.33;;;12.27;;
74510;SDS011;62991;50.040;18.400;2022-11-11T08:05:46;23.10;;;8.20;;
74510;SDS011;62991;50.040;18.400;2022-11-11T08:08:47;36.45;;;9.95;;
74510;SDS011;62991;50.040;18.400;2022-11-11T08:11:48;23.45;;;9.73;;
74510;SDS011;62991;50.040;18.400;2022-11-11T08:15:07;38.70;;;12.57;;
74510;SDS011;62991;50.040;18.400;2022-11-11T08:18:08;30.90;;;12.40;;
74510;SDS011;62991;50.040;18.400;2022-11-11T08:21:09;22.35;;;8.68;;
74510;SDS011;62991;50.040;18.400;2022-11-11T08:24:10;29.63;;;11.82;;
74510;SDS011;62991;50.040;18.400;2022-11-11T08:27:10;19.50;;;9.15;;
74510;SDS011;62991;50.040;18.400;2022-11-11T08:30:11;23.45;;;11.55;;
74510;SDS011;62991;50.040;18.400;2022-11-11T08:33:12;30.75;;;12.02;;
74510;SDS011;62991;50.040;18.400;2022-11-11T08:36:13;39.60;;;16.38;;
74510;SDS011;62991;50.040;18.400;2022-11-11T08:39:14;34.80;;;14.82;;
74510;SDS011;62991;50.040;18.400;2022-11-11T08:42:14;30.00;;;12.38;;
74510;SDS011;62991;50.040;18.400;2022-11-11T08:45:15;29.10;;;10.70;;
74510;SDS011;62991;50.040;18.400;2022-11-11T08:48:16;29.75;;;12.45;;
74510;SDS011;62991;50.040;18.400;2022-11-11T08:51:16;31.60;;;10.98;;
74510;SDS011;62991;50.040;18.400;2022-11-11T08:54:17;33.42;;;11.43;;
74510;SDS011;62991;50.040;18.400;2022-11-11T08:57:18;32.47;;;12.13;;
74510;SDS011;62991;50.040;18.400;2022-11-11T09:00:19;23.88;;;10.45;;
74510;SDS011;62991;50.040;18.400;2022-11-11T09:03:19;25.85;;;10.75;;
74510;SDS011;62991;50.040;18.400;2022-11-11T09:06:20;21.73;;;8.55;;
74510;SDS011;62991;50.040;18.400;2022-11-11T09:09:21;24.77;;;11.10;;
74510;SDS011;62991;50.040;18.400;2022-11-11T09:12:22;38.38;;;13.40;;
74510;SDS011;62991;50.040;18.400;2022-11-11T09:15:22;22.73;;;8.40;;
74510;SDS011;62991;50.040;18.400;2022-11-11T09:18:24;21.77;;;9.02;;
74510;SDS011;62991;50.040;18.400;2022-11-11T09:21:25;23.08;;;9.40;;
74510;SDS011;62991;50.040;18.400;2022-11-11T09:24:25;34.88;;;12.95;;
74510;SDS011;62991;50.040;18.400;2022-11-11T09:27:26;36.20;;;13.20;;
74510;SDS011;62991;50.040;18.400;2022-11-11T09:30:27;33.60;;;11.82;;
74510;SDS011;62991;50.040;18.400;2022-11-11T09:33:29;18.83;;;8.18;;
74510;SDS011;62991;50.040;18.400;2022-11-11T09:36:29;21.67;;;8.52;;
74510;SDS011;62991;50.040;18.400;2022-11-11T09:39:30;27.08;;;9.95;;
74510;SDS011;62991;50.040;18.400;2022-11-11T09:42:39;23.80;;;8.63;;
74510;SDS011;62991;50.040;18.400;2022-11-11T09:49:09;20.95;;;8.38;;
74510;SDS011;62991;50.040;18.400;2022-11-11T09:52:28;17.92;;;8.63;;
74510;SDS011;62991;50.040;18.400;2022-11-11T09:55:38;26.23;;;11.23;;
74510;SDS011;62991;50.040;18.400;2022-11-11T09:59:16;29.02;;;11.25;;
74510;SDS011;62991;50.040;18.400;2022-11-11T10:05:42;28.52;;;10.77;;
74510;SDS011;62991;50.040;18.400;2022-11-11T10:08:52;21.38;;;9.55;;
74510;SDS011;62991;50.040;18.400;2022-11-11T10:15:16;30.38;;;11.65;;
74510;SDS011;62991;50.040;18.400;2022-11-11T10:18:24;17.80;;;7.93;;
74510;SDS011;62991;50.040;18.400;2022-11-11T10:21:37;22.42;;;9.65;;
74510;SDS011;62991;50.040;18.400;2022-11-11T10:24:58;23.77;;;10.05;;
74510;SDS011;62991;50.040;18.400;2022-11-11T10:28:04;35.83;;;12.75;;
74510;SDS011;62991;50.040;18.400;2022-11-11T10:31:12;37.17;;;13.05;;
74510;SDS011;62991;50.040;18.400;2022-11-11T10:34:16;28.50;;;10.98;;
74510;SDS011;62991;50.040;18.400;2022-11-11T10:37:20;14.43;;;6.65;;
74510;SDS011;62991;50.040;18.400;2022-11-11T10:40:27;8.07;;;4.18;;
74510;SDS011;62991;50.040;18.400;2022-11-11T10:43:34;11.07;;;4.60;;
74510;SDS011;62991;50.040;18.400;2022-11-11T10:46:36;16.42;;;8.00;;
74510;SDS011;62991;50.040;18.400;2022-11-11T10:49:57;22.33;;;7.10;;
74510;SDS011;62991;50.040;18.400;2022-11-11T10:56:18;15.68;;;7.18;;
74510;SDS011;62991;50.040;18.400;2022-11-11T10:59:34;12.75;;;4.78;;
74510;SDS011;62991;50.040;18.400;2022-11-11T11:02:56;18.23;;;7.75;;
74510;SDS011;62991;50.040;18.400;2022-11-11T11:06:05;23.23;;;8.05;;
74510;SDS011;62991;50.040;18.400;2022-11-11T11:09:13;19.83;;;7.47;;
74510;SDS011;62991;50.040;18.400;2022-11-11T11:12:29;19.92;;;7.82;;
74510;SDS011;62991;50.040;18.400;2022-11-11T11:15:57;19.30;;;8.10;;
74510;SDS011;62991;50.040;18.400;2022-11-11T11:22:20;13.27;;;6.18;;
74510;SDS011;62991;50.040;18.400;2022-11-11T11:25:22;11.95;;;5.80;;
74510;SDS011;62991;50.040;18.400;2022-11-11T11:28:23;8.65;;;4.40;;
74510;SDS011;62991;50.040;18.400;2022-11-11T11:31:37;12.40;;;5.32;;
74510;SDS011;62991;50.040;18.400;2022-11-11T11:37:49;13.25;;;5.80;;
74510;SDS011;62991;50.040;18.400;2022-11-11T11:40:55;12.32;;;5.35;;
74510;SDS011;62991;50.040;18.400;2022-11-11T11:43:56;13.13;;;5.57;;
74510;SDS011;62991;50.040;18.400;2022-11-11T11:53:43;14.75;;;6.30;;
74510;SDS011;62991;50.040;18.400;2022-11-11T11:56:48;16.08;;;7.05;;
74510;SDS011;62991;50.040;18.400;2022-11-11T12:00:11;19.40;;;6.97;;
74510;SDS011;62991;50.040;18.400;2022-11-11T12:10:23;17.45;;;6.95;;
74510;SDS011;62991;50.040;18.400;2022-11-11T12:13:48;12.65;;;5.90;;
74510;SDS011;62991;50.040;18.400;2022-11-11T12:17:23;13.65;;;6.38;;
74510;SDS011;62991;50.040;18.400;2022-11-11T12:20:39;15.13;;;7.68;;
74510;SDS011;62991;50.040;18.400;2022-11-11T12:27:06;19.38;;;8.38;;
74510;SDS011;62991;50.040;18.400;2022-11-11T12:33:19;16.73;;;7.47;;
74510;SDS011;62991;50.040;18.400;2022-11-11T12:43:07;19.60;;;7.63;;
74510;SDS011;62991;50.040;18.400;2022-11-11T12:56:58;19.35;;;6.57;;
74510;SDS011;62991;50.040;18.400;2022-11-11T13:00:11;17.20;;;7.35;;
74510;SDS011;62991;50.040;18.400;2022-11-11T13:07:20;18.95;;;7.13;;
74510;SDS011;62991;50.040;18.400;2022-11-11T13:16:41;15.93;;;6.22;;
74510;SDS011;62991;50.040;18.400;2022-11-11T13:19:53;14.60;;;5.93;;
74510;SDS011;62991;50.040;18.400;2022-11-11T13:22:58;16.20;;;7.25;;
74510;SDS011;62991;50.040;18.400;2022-11-11T13:26:00;16.48;;;6.38;;
74510;SDS011;62991;50.040;18.400;2022-11-11T13:29:29;17.73;;;6.50;;
74510;SDS011;62991;50.040;18.400;2022-11-11T13:36:10;23.55;;;7.35;;
74510;SDS011;62991;50.040;18.400;2022-11-11T13:39:33;21.25;;;7.40;;
74510;SDS011;62991;50.040;18.400;2022-11-11T13:42:40;15.15;;;5.85;;
74510;SDS011;62991;50.040;18.400;2022-11-11T13:45:53;17.30;;;6.15;;
74510;SDS011;62991;50.040;18.400;2022-11-11T13:51:59;12.18;;;4.65;;
74510;SDS011;62991;50.040;18.400;2022-11-11T13:55:05;21.30;;;8.50;;
74510;SDS011;62991;50.040;18.400;2022-11-11T13:58:23;17.27;;;6.80;;
74510;SDS011;62991;50.040;18.400;2022-11-11T14:01:34;17.63;;;6.38;;
74510;SDS011;62991;50.040;18.400;2022-11-11T14:05:05;20.85;;;7.60;;
74510;SDS011;62991;50.040;18.400;2022-11-11T14:08:07;21.30;;;7.15;;
74510;SDS011;62991;50.040;18.400;2022-11-11T14:11:09;16.63;;;6.90;;
74510;SDS011;62991;50.040;18.400;2022-11-11T14:17:41;32.78;;;10.80;;
74510;SDS011;62991;50.040;18.400;2022-11-11T14:20:50;31.98;;;10.32;;
74510;SDS011;62991;50.040;18.400;2022-11-11T14:23:52;33.30;;;12.00;;
74510;SDS011;62991;50.040;18.400;2022-11-11T14:27:03;24.05;;;10.05;;
74510;SDS011;62991;50.040;18.400;2022-11-11T14:30:49;18.63;;;6.82;;
74510;SDS011;62991;50.040;18.400;2022-11-11T14:40:01;21.00;;;8.82;;
74510;SDS011;62991;50.040;18.400;2022-11-11T14:50:01;41.72;;;13.63;;
74510;SDS011;62991;50.040;18.400;2022-11-11T14:53:24;26.85;;;10.32;;
74510;SDS011;62991;50.040;18.400;2022-11-11T14:56:36;42.40;;;14.25;;
74510;SDS011;62991;50.040;18.400;2022-11-11T14:59:37;34.40;;;12.57;;
74510;SDS011;62991;50.040;18.400;2022-11-11T15:02:46;33.80;;;12.43;;
74510;SDS011;62991;50.040;18.400;2022-11-11T15:05:55;37.10;;;14.68;;
74510;SDS011;62991;50.040;18.400;2022-11-11T15:35:56;40.63;;;16.92;;
74510;SDS011;62991;50.040;18.400;2022-11-11T15:38:58;51.60;;;18.20;;
74510;SDS011;62991;50.040;18.400;2022-11-11T15:42:10;45.30;;;16.17;;
74510;SDS011;62991;50.040;18.400;2022-11-11T15:48:19;32.13;;;12.35;;
74510;SDS011;62991;50.040;18.400;2022-11-11T15:51:27;29.88;;;11.73;;
74510;SDS011;62991;50.040;18.400;2022-11-11T15:54:31;40.10;;;15.25;;
74510;SDS011;62991;50.040;18.400;2022-11-11T15:57:33;30.05;;;11.10;;
74510;SDS011;62991;50.040;18.400;2022-11-11T16:00:34;23.02;;;9.63;;
74510;SDS011;62991;50.040;18.400;2022-11-11T16:03:39;34.95;;;12.35;;
74510;SDS011;62991;50.040;18.400;2022-11-11T16:06:41;32.50;;;10.52;;
74510;SDS011;62991;50.040;18.400;2022-11-11T16:09:42;26.65;;;11.23;;
74510;SDS011;62991;50.040;18.400;2022-11-11T16:12:46;35.10;;;11.88;;
74510;SDS011;62991;50.040;18.400;2022-11-11T16:15:58;24.83;;;9.70;;
74510;SDS011;62991;50.040;18.400;2022-11-11T16:22:20;33.47;;;11.65;;
74510;SDS011;62991;50.040;18.400;2022-11-11T16:25:29;42.22;;;16.83;;
74510;SDS011;62991;50.040;18.400;2022-11-11T16:28:44;29.05;;;11.55;;
74510;SDS011;62991;50.040;18.400;2022-11-11T16:31:47;41.95;;;14.40;;
74510;SDS011;62991;50.040;18.400;2022-11-11T16:34:47;32.53;;;14.60;;
74510;SDS011;62991;50.040;18.400;2022-11-11T16:37:49;44.38;;;15.65;;
74510;SDS011;62991;50.040;18.400;2022-11-11T16:40:51;36.90;;;14.00;;
74510;SDS011;62991;50.040;18.400;2022-11-11T16:43:52;36.08;;;13.02;;
74510;SDS011;62991;50.040;18.400;2022-11-11T16:46:55;22.85;;;9.43;;
74510;SDS011;62991;50.040;18.400;2022-11-11T16:50:06;35.88;;;13.30;;
74510;SDS011;62991;50.040;18.400;2022-11-11T16:53:22;40.78;;;16.52;;
74510;SDS011;62991;50.040;18.400;2022-11-11T16:56:27;38.17;;;14.05;;
74510;SDS011;62991;50.040;18.400;2022-11-11T16:59:34;43.17;;;16.52;;
74510;SDS011;62991;50.040;18.400;2022-11-11T17:02:41;36.42;;;15.55;;
74510;SDS011;62991;50.040;18.400;2022-11-11T17:08:56;39.50;;;14.52;;
74510;SDS011;62991;50.040;18.400;2022-11-11T17:11:56;33.90;;;12.70;;
74510;SDS011;62991;50.040;18.400;2022-11-11T17:14:57;32.88;;;14.15;;
74510;SDS011;62991;50.040;18.400;2022-11-11T17:17:58;13.80;;;5.50;;
74510;SDS011;62991;50.040;18.400;2022-11-11T17:21:01;44.08;;;16.92;;
74510;SDS011;62991;50.040;18.400;2022-11-11T17:24:02;44.25;;;17.73;;
74510;SDS011;62991;50.040;18.400;2022-11-11T17:27:03;32.38;;;13.82;;
74510;SDS011;62991;50.040;18.400;2022-11-11T17:30:04;22.23;;;9.30;;
74510;SDS011;62991;50.040;18.400;2022-11-11T17:33:05;28.58;;;11.38;;
74510;SDS011;62991;50.040;18.400;2022-11-11T17:36:06;49.55;;;17.92;;
74510;SDS011;62991;50.040;18.400;2022-11-11T17:39:07;23.00;;;10.43;;
74510;SDS011;62991;50.040;18.400;2022-11-11T17:42:08;26.00;;;12.00;;
74510;SDS011;62991;50.040;18.400;2022-11-11T17:45:08;22.70;;;9.48;;
74510;SDS011;62991;50.040;18.400;2022-11-11T17:48:09;32.13;;;11.25;;
74510;SDS011;62991;50.040;18.400;2022-11-11T17:51:10;33.40;;;11.98;;
74510;SDS011;62991;50.040;18.400;2022-11-11T17:54:11;29.85;;;10.48;;
74510;SDS011;62991;50.040;18.400;2022-11-11T17:57:11;21.15;;;10.38;;
74510;SDS011;62991;50.040;18.400;2022-11-11T18:00:12;20.58;;;8.98;;
74510;SDS011;62991;50.040;18.400;2022-11-11T18:03:14;17.08;;;8.10;;
74510;SDS011;62991;50.040;18.400;2022-11-11T18:06:15;29.88;;;12.23;;
74510;SDS011;62991;50.040;18.400;2022-11-11T18:09:16;27.65;;;9.77;;
74510;SDS011;62991;50.040;18.400;2022-11-11T18:12:16;16.23;;;7.50;;
74510;SDS011;62991;50.040;18.400;2022-11-11T18:15:17;24.17;;;9.32;;
74510;SDS011;62991;50.040;18.400;2022-11-11T18:18:19;30.48;;;10.98;;
74510;SDS011;62991;50.040;18.400;2022-11-11T18:21:19;28.60;;;11.90;;
74510;SDS011;62991;50.040;18.400;2022-11-11T18:24:20;25.30;;;10.63;;
74510;SDS011;62991;50.040;18.400;2022-11-11T18:27:21;30.98;;;12.18;;
74510;SDS011;62991;50.040;18.400;2022-11-11T18:30:21;26.55;;;9.77;;
74510;SDS011;62991;50.040;18.400;2022-11-11T18:33:22;28.77;;;12.23;;
74510;SDS011;62991;50.040;18.400;2022-11-11T18:36:23;24.23;;;10.45;;
74510;SDS011;62991;50.040;18.400;2022-11-11T18:39:23;33.70;;;13.65;;
74510;SDS011;62991;50.040;18.400;2022-11-11T18:42:24;32.45;;;12.57;;
74510;SDS011;62991;50.040;18.400;2022-11-11T18:45:25;29.88;;;12.80;;
74510;SDS011;62991;50.040;18.400;2022-11-11T18:48:26;37.35;;;12.98;;
74510;SDS011;62991;50.040;18.400;2022-11-11T18:51:27;38.55;;;14.50;;
74510;SDS011;62991;50.040;18.400;2022-11-11T18:54:30;26.30;;;11.30;;
74510;SDS011;62991;50.040;18.400;2022-11-11T18:57:31;43.08;;;15.10;;
74510;SDS011;62991;50.040;18.400;2022-11-11T19:00:31;39.00;;;14.70;;
74510;SDS011;62991;50.040;18.400;2022-11-11T19:03:32;43.67;;;14.52;;
74510;SDS011;62991;50.040;18.400;2022-11-11T19:06:38;27.15;;;11.63;;
74510;SDS011;62991;50.040;18.400;2022-11-11T19:09:39;51.95;;;16.90;;
74510;SDS011;62991;50.040;18.400;2022-11-11T19:12:39;52.60;;;17.17;;
74510;SDS011;62991;50.040;18.400;2022-11-11T19:15:40;48.72;;;16.58;;
74510;SDS011;62991;50.040;18.400;2022-11-11T19:18:41;41.80;;;14.30;;
74510;SDS011;62991;50.040;18.400;2022-11-11T19:21:42;31.75;;;12.27;;
74510;SDS011;62991;50.040;18.400;2022-11-11T19:24:43;27.25;;;12.18;;
74510;SDS011;62991;50.040;18.400;2022-11-11T19:27:43;36.78;;;13.82;;
74510;SDS011;62991;50.040;18.400;2022-11-11T19:30:44;26.25;;;11.38;;
74510;SDS011;62991;50.040;18.400;2022-11-11T19:33:46;34.10;;;12.80;;
74510;SDS011;62991;50.040;18.400;2022-11-11T19:36:47;28.02;;;10.50;;
74510;SDS011;62991;50.040;18.400;2022-11-11T19:39:48;32.90;;;13.43;;
74510;SDS011;62991;50.040;18.400;2022-11-11T19:42:49;38.10;;;13.90;;
74510;SDS011;62991;50.040;18.400;2022-11-11T19:45:50;37.60;;;14.45;;
74510;SDS011;62991;50.040;18.400;2022-11-11T19:48:52;40.63;;;14.18;;
74510;SDS011;62991;50.040;18.400;2022-11-11T19:51:54;42.95;;;15.63;;
74510;SDS011;62991;50.040;18.400;2022-11-11T19:54:54;47.47;;;18.15;;
74510;SDS011;62991;50.040;18.400;2022-11-11T19:57:56;33.67;;;13.50;;
74510;SDS011;62991;50.040;18.400;2022-11-11T20:00:57;34.53;;;13.20;;
74510;SDS011;62991;50.040;18.400;2022-11-11T20:03:58;40.15;;;14.32;;
74510;SDS011;62991;50.040;18.400;2022-11-11T20:06:59;23.80;;;10.65;;
74510;SDS011;62991;50.040;18.400;2022-11-11T20:09:59;18.65;;;7.72;;
74510;SDS011;62991;50.040;18.400;2022-11-11T20:13:00;26.25;;;10.18;;